Time;durP1;ratioP1;P1;durP2;ratioP2;P2;SDS_P1;SDS_P2;PMS_P1;PMS_P2;Temp;Humidity;BMP_temperature;BMP_pressure;BME280_temperature;BME280_humidity;BME280_pressure;Samples;Min_cycle;Max_cycle;Signal;HPM_P1;HPM_P2
2023/10/18 00:02:00;;;;;;;9.07;5.45;;;7.90;92.20;;;;;;5077544;28;20016;-68
2023/10/18 00:04:28;;;;;;;9.45;5.60;;;7.80;92.30;;;;;;5087559;28;20028;-70
2023/10/18 00:06:54;;;;;;;12.98;5.93;;;7.80;92.40;;;;;;5083689;28;20038;-69
2023/10/18 00:09:45;;;;;;;7.10;5.32;;;7.80;92.40;;;;;;5092361;28;20032;-69
2023/10/18 00:12:12;;;;;;;7.57;5.60;;;7.80;92.40;;;;;;5092470;28;20036;-69
2023/10/18 00:14:39;;;;;;;6.65;5.32;;;7.80;92.50;;;;;;5092012;28;20043;-69
2023/10/18 00:17:05;;;;;;;7.32;5.97;;;7.80;92.50;;;;;;5092525;28;20035;-68
2023/10/18 00:19:31;;;;;;;7.13;5.65;;;7.70;92.50;;;;;;5092333;28;20040;-68
2023/10/18 00:21:57;;;;;;;7.15;5.55;;;7.70;92.70;;;;;;5091888;28;20036;-68
2023/10/18 00:24:23;;;;;;;7.78;5.90;;;7.70;92.90;;;;;;5095733;28;20032;-68
2023/10/18 00:26:49;;;;;;;8.15;5.93;;;7.70;92.80;;;;;;5093999;28;20028;-68
2023/10/18 00:29:15;;;;;;;10.75;6.47;;;7.60;93.10;;;;;;5094747;28;20024;-69
2023/10/18 00:31:41;;;;;;;10.15;6.03;;;7.60;93.30;;;;;;5095398;28;20028;-70
2023/10/18 00:34:06;;;;;;;8.13;6.15;;;7.60;93.70;;;;;;5095760;28;20094;-68
2023/10/18 00:36:32;;;;;;;9.02;6.05;;;7.50;93.80;;;;;;5095596;28;20021;-68
2023/10/18 00:38:58;;;;;;;10.48;6.35;;;7.50;94.30;;;;;;5094856;28;20074;-69
2023/10/18 00:41:32;;;;;;;9.80;6.57;;;7.50;94.50;;;;;;5095567;28;20030;-70
2023/10/18 00:43:58;;;;;;;8.07;6.03;;;7.50;94.80;;;;;;5095111;28;20249;-68
2023/10/18 00:46:24;;;;;;;8.50;6.20;;;7.50;95.10;;;;;;5094159;28;20468;-70
2023/10/18 00:48:51;;;;;;;8.15;6.47;;;7.50;95.10;;;;;;5094700;28;20110;-70
2023/10/18 00:51:18;;;;;;;10.93;6.53;;;7.50;95.30;;;;;;5095434;28;20053;-68
2023/10/18 00:53:48;;;;;;;9.00;6.20;;;7.50;95.40;;;;;;5093365;28;20028;-69
2023/10/18 00:56:17;;;;;;;9.85;6.60;;;7.40;95.20;;;;;;5095205;28;20380;-69
2023/10/18 00:58:44;;;;;;;10.95;6.80;;;7.50;95.20;;;;;;5094708;28;20123;-69
2023/10/18 01:01:10;;;;;;;11.45;6.90;;;7.40;95.30;;;;;;5095454;28;20109;-69
2023/10/18 01:03:49;;;;;;;10.15;6.55;;;7.40;95.40;;;;;;5095219;28;20020;-69
2023/10/18 01:06:17;;;;;;;7.65;6.30;;;7.30;95.40;;;;;;5095453;28;20048;-69
2023/10/18 01:08:46;;;;;;;8.30;6.35;;;7.30;95.90;;;;;;5094722;28;20036;-69
2023/10/18 01:11:12;;;;;;;8.25;6.93;;;7.20;96.20;;;;;;5095076;28;20026;-68
2023/10/18 01:13:42;;;;;;;8.60;7.07;;;7.30;96.30;;;;;;5095033;28;20107;-68
2023/10/18 01:16:21;;;;;;;9.65;6.97;;;7.30;96.30;;;;;;5094853;28;20089;-68
2023/10/18 01:18:49;;;;;;;13.13;7.07;;;7.30;96.20;;;;;;5094189;28;20473;-68
2023/10/18 01:21:19;;;;;;;10.63;7.45;;;7.30;96.30;;;;;;5094758;28;20050;-68
2023/10/18 01:23:49;;;;;;;9.23;7.20;;;7.20;96.40;;;;;;5093181;28;20028;-69
2023/10/18 01:26:15;;;;;;;12.48;7.65;;;7.30;96.60;;;;;;5094754;28;20520;-68
2023/10/18 01:28:42;;;;;;;12.00;8.05;;;7.20;96.70;;;;;;5094545;28;20036;-71
2023/10/18 01:31:09;;;;;;;9.48;7.47;;;7.20;96.70;;;;;;5094730;28;20077;-68
2023/10/18 01:33:39;;;;;;;8.68;7.40;;;7.20;96.90;;;;;;5094336;28;20107;-68
2023/10/18 01:36:05;;;;;;;12.30;7.47;;;7.20;97.30;;;;;;5094253;28;20415;-69
2023/10/18 01:38:31;;;;;;;13.30;8.73;;;7.20;97.30;;;;;;5094166;28;20036;-69
2023/10/18 01:40:59;;;;;;;13.95;8.10;;;7.10;97.30;;;;;;5093700;28;20024;-69
2023/10/18 01:43:28;;;;;;;9.73;7.85;;;7.10;97.10;;;;;;5091647;28;20024;-69
2023/10/18 01:45:54;;;;;;;10.52;7.47;;;7.10;97.40;;;;;;5094027;28;20051;-69
2023/10/18 01:48:20;;;;;;;10.73;7.50;;;7.00;97.70;;;;;;5092985;28;20039;-70
2023/10/18 01:50:46;;;;;;;19.27;8.27;;;7.10;97.80;;;;;;5092097;28;20053;-70
2023/10/18 01:53:21;;;;;;;11.32;7.85;;;7.00;97.90;;;;;;5094213;28;20028;-69
2023/10/18 01:55:51;;;;;;;10.55;8.75;;;7.00;98.10;;;;;;5093874;28;20021;-70
2023/10/18 01:58:18;;;;;;;12.83;8.47;;;7.00;98.40;;;;;;5093874;28;20105;-69
2023/10/18 02:00:45;;;;;;;10.82;8.68;;;7.00;98.40;;;;;;5094031;28;20520;-70
2023/10/18 02:03:14;;;;;;;10.85;8.35;;;6.90;98.40;;;;;;5092260;28;20124;-69
2023/10/18 02:05:43;;;;;;;14.15;7.35;;;6.90;98.70;;;;;;5094038;28;20476;-69
2023/10/18 02:08:09;;;;;;;10.02;7.85;;;6.90;98.70;;;;;;5093291;28;20055;-69
2023/10/18 02:10:34;;;;;;;10.48;7.65;;;6.90;98.80;;;;;;5093948;28;20112;-70
2023/10/18 02:13:00;;;;;;;10.48;8.43;;;6.90;98.90;;;;;;5093263;28;20526;-68
2023/10/18 02:15:26;;;;;;;15.63;8.60;;;6.90;99.00;;;;;;5093829;28;20101;-69
2023/10/18 02:17:56;;;;;;;10.43;8.13;;;6.90;99.00;;;;;;5094487;28;20028;-69
2023/10/18 02:20:26;;;;;;;10.35;7.65;;;6.90;99.00;;;;;;5095707;28;20032;-67
2023/10/18 02:22:59;;;;;;;11.35;8.38;;;6.90;99.20;;;;;;5095928;28;20114;-68
2023/10/18 02:25:42;;;;;;;13.88;8.13;;;6.90;99.10;;;;;;5094999;28;20468;-69
2023/10/18 02:28:22;;;;;;;10.75;8.32;;;6.90;99.40;;;;;;5095431;28;20032;-69
2023/10/18 02:30:55;;;;;;;9.27;7.97;;;6.90;99.50;;;;;;5094246;28;20032;-70
2023/10/18 02:36:32;;;;;;;13.45;8.85;;;6.90;99.70;;;;;;5079917;28;20430;-69
2023/10/18 02:38:59;;;;;;;12.88;8.18;;;6.80;99.70;;;;;;5093058;28;20457;-68
2023/10/18 02:41:28;;;;;;;11.93;8.70;;;6.80;99.80;;;;;;5093291;28;20032;-70
2023/10/18 02:43:54;;;;;;;12.00;8.88;;;6.80;99.90;;;;;;5092850;28;20110;-68
2023/10/18 02:46:24;;;;;;;9.70;8.38;;;6.80;99.90;;;;;;5092929;28;20517;-70
2023/10/18 02:48:53;;;;;;;11.15;8.65;;;6.80;99.90;;;;;;5092638;28;20488;-68
2023/10/18 02:51:23;;;;;;;12.15;9.07;;;6.80;99.90;;;;;;5093219;28;20055;-69
2023/10/18 02:53:51;;;;;;;10.73;7.93;;;6.70;99.90;;;;;;5091593;28;20111;-71
2023/10/18 02:56:17;;;;;;;14.95;8.60;;;6.70;99.90;;;;;;5093377;28;20051;-69
2023/10/18 02:58:46;;;;;;;12.48;9.10;;;6.70;99.90;;;;;;5092817;28;20131;-68
2023/10/18 03:01:14;;;;;;;11.48;9.00;;;6.70;99.90;;;;;;5092785;28;20024;-68
2023/10/18 03:03:46;;;;;;;13.02;8.48;;;6.60;99.90;;;;;;5092998;28;20044;-68
2023/10/18 03:06:14;;;;;;;12.52;9.23;;;6.60;99.90;;;;;;5092604;28;20059;-68
2023/10/18 03:08:49;;;;;;;12.30;8.55;;;6.60;99.90;;;;;;5093045;28;20036;-68
2023/10/18 03:11:17;;;;;;;12.38;8.55;;;6.60;99.90;;;;;;5093170;28;20054;-68
2023/10/18 03:13:42;;;;;;;14.95;9.70;;;6.60;99.90;;;;;;5093111;28;20032;-68
2023/10/18 03:18:42;;;;;;;15.63;8.93;;;6.70;99.90;;;;;;5092853;28;20032;-68
2023/10/18 03:21:08;;;;;;;12.43;8.25;;;6.70;99.90;;;;;;5092764;28;20111;-68
2023/10/18 03:23:44;;;;;;;15.85;8.82;;;6.60;99.90;;;;;;5091344;28;20078;-69
2023/10/18 03:26:11;;;;;;;12.20;8.57;;;6.70;99.90;;;;;;5092468;28;20031;-69
2023/10/18 03:28:40;;;;;;;11.85;8.18;;;6.60;99.90;;;;;;5092743;28;20024;-69
2023/10/18 03:31:27;;;;;;;11.00;8.20;;;6.60;99.90;;;;;;5092369;28;20103;-69
2023/10/18 03:34:02;;;;;;;11.80;8.85;;;6.60;99.90;;;;;;5092215;28;20441;-69
2023/10/18 03:36:31;;;;;;;10.98;8.02;;;6.60;99.90;;;;;;5092826;28;20452;-68
2023/10/18 03:39:01;;;;;;;14.90;9.40;;;6.50;99.90;;;;;;5091955;28;20424;-69
2023/10/18 03:41:33;;;;;;;13.82;8.30;;;6.60;99.90;;;;;;5092670;28;20024;-69
2023/10/18 03:44:08;;;;;;;14.63;8.88;;;6.50;99.90;;;;;;5092223;28;20032;-68
2023/10/18 03:46:47;;;;;;;12.02;8.55;;;6.50;99.90;;;;;;5092800;28;20050;-68
2023/10/18 03:51:56;;;;;;;12.43;8.48;;;6.50;99.90;;;;;;5089089;28;20090;-70
2023/10/18 03:54:23;;;;;;;14.63;8.70;;;6.40;99.90;;;;;;5092497;28;20115;-69
2023/10/18 03:56:53;;;;;;;17.58;8.48;;;6.40;99.90;;;;;;5093609;28;20027;-69
2023/10/18 03:59:23;;;;;;;14.50;8.70;;;6.40;99.90;;;;;;5096460;28;20044;-69
2023/10/18 04:02:04;;;;;;;14.30;8.73;;;6.30;99.90;;;;;;5096470;28;20039;-69
2023/10/18 04:04:36;;;;;;;;;;;6.30;99.90;;;;;;5097041;28;20032;-68
2023/10/18 04:07:12;;;;;;;15.45;9.27;;;6.30;99.90;;;;;;5076468;28;20433;-69
2023/10/18 04:09:53;;;;;;;12.68;9.32;;;6.30;99.90;;;;;;5076125;28;20033;-70
2023/10/18 04:12:19;;;;;;;14.57;8.85;;;6.30;99.90;;;;;;5075232;28;20020;-69
2023/10/18 04:15:01;;;;;;;16.75;8.98;;;6.30;99.90;;;;;;5075900;28;20037;-69
2023/10/18 04:18:13;;;;;;;11.93;8.82;;;6.20;99.90;;;;;;5075926;28;20025;-69
2023/10/18 04:22:46;;;;;;;15.43;9.02;;;6.20;99.90;;;;;;5075735;28;20074;-69
2023/10/18 04:25:32;;;;;;;11.25;9.20;;;6.20;99.90;;;;;;5075279;28;20137;-68
2023/10/18 04:27:59;;;;;;;13.50;9.68;;;6.10;99.90;;;;;;5075288;28;20020;-69
2023/10/18 04:30:25;;;;;;;13.52;9.65;;;6.10;99.90;;;;;;5075607;28;20121;-69
2023/10/18 04:32:59;;;;;;;15.40;9.30;;;6.10;99.90;;;;;;5075518;28;20028;-68
2023/10/18 04:35:29;;;;;;;11.50;8.48;;;6.10;99.90;;;;;;5075655;28;20377;-68
2023/10/18 04:37:55;;;;;;;14.43;9.73;;;6.10;99.90;;;;;;5075742;28;20377;-68
2023/10/18 04:40:28;;;;;;;15.10;9.95;;;6.10;99.90;;;;;;5076747;28;20043;-68
2023/10/18 04:42:57;;;;;;;12.90;9.38;;;6.10;99.90;;;;;;5091657;28;20063;-70
2023/10/18 04:45:23;;;;;;;12.32;8.82;;;6.10;99.90;;;;;;5095414;28;20475;-69
2023/10/18 04:48:01;;;;;;;13.05;8.70;;;6.20;99.90;;;;;;5095634;28;20020;-69
2023/10/18 04:50:32;;;;;;;12.73;9.10;;;6.20;99.90;;;;;;5086385;28;20479;-69
2023/10/18 04:52:59;;;;;;;16.83;10.15;;;6.10;99.90;;;;;;5074839;28;20108;-70
2023/10/18 04:55:26;;;;;;;11.73;8.75;;;6.10;99.90;;;;;;5087709;28;20031;-69
2023/10/18 04:57:53;;;;;;;15.00;9.32;;;6.10;99.90;;;;;;5094856;28;20110;-68
2023/10/18 05:00:35;;;;;;;16.60;9.00;;;6.10;99.90;;;;;;5088032;28;20485;-69
2023/10/18 05:03:06;;;;;;;16.58;8.65;;;6.20;99.90;;;;;;5078977;28;20153;-69
2023/10/18 05:05:37;;;;;;;15.18;9.63;;;6.20;99.90;;;;;;5075015;28;20025;-69
2023/10/18 05:08:07;;;;;;;14.73;9.43;;;6.10;99.90;;;;;;5083263;28;20032;-68
2023/10/18 05:10:33;;;;;;;12.35;8.77;;;6.10;99.90;;;;;;5092892;28;20043;-67
2023/10/18 05:13:01;;;;;;;14.77;9.35;;;6.10;99.90;;;;;;5084962;28;20031;-69
2023/10/18 05:15:32;;;;;;;13.88;9.10;;;6.10;99.90;;;;;;5091824;28;20025;-72
2023/10/18 05:18:15;;;;;;;11.88;9.02;;;6.00;99.90;;;;;;5094926;28;20101;-69
2023/10/18 05:20:47;;;;;;;14.85;9.82;;;6.00;99.90;;;;;;5094585;28;20496;-68
2023/10/18 05:23:34;;;;;;;14.23;9.20;;;5.90;99.90;;;;;;5078394;28;20028;-68
2023/10/18 05:28:42;;;;;;;16.70;9.75;;;5.90;99.90;;;;;;5084124;28;20041;-70
2023/10/18 05:31:27;;;;;;;14.23;9.77;;;5.90;99.90;;;;;;5079466;28;20035;-68
2023/10/18 05:34:06;;;;;;;14.68;9.27;;;5.90;99.90;;;;;;5076399;28;20453;-69
2023/10/18 05:36:35;;;;;;;15.88;9.38;;;5.90;99.90;;;;;;5073863;28;20038;-70
2023/10/18 05:41:46;;;;;;;17.00;9.38;;;5.90;99.90;;;;;;5074049;28;20120;-67
2023/10/18 05:44:12;;;;;;;14.30;8.80;;;5.80;99.90;;;;;;5087181;28;20067;-70
2023/10/18 05:46:39;;;;;;;21.70;10.60;;;5.90;99.90;;;;;;5094244;28;20074;-69
2023/10/18 05:49:23;;;;;;;13.45;9.27;;;5.80;99.90;;;;;;5093443;28;20032;-69
2023/10/18 05:52:01;;;;;;;15.20;9.95;;;5.90;99.90;;;;;;5094204;28;20029;-68
2023/10/18 05:54:29;;;;;;;15.30;9.07;;;5.90;99.90;;;;;;5093773;28;20524;-70
2023/10/18 05:56:56;;;;;;;17.27;9.93;;;5.90;99.90;;;;;;5092703;28;20028;-68
2023/10/18 06:01:49;;;;;;;16.73;9.90;;;5.90;99.90;;;;;;5093976;28;20055;-67
2023/10/18 06:04:23;;;;;;;15.75;9.82;;;6.00;99.90;;;;;;5093485;28;20517;-69
2023/10/18 06:06:51;;;;;;;16.10;9.52;;;6.00;99.90;;;;;;5094055;28;20093;-69
2023/10/18 06:09:26;;;;;;;14.05;9.90;;;6.00;99.90;;;;;;5093377;28;20077;-68
2023/10/18 06:11:54;;;;;;;16.33;10.10;;;6.00;99.90;;;;;;5093852;28;20368;-68
2023/10/18 06:14:20;;;;;;;16.20;10.23;;;6.10;99.90;;;;;;5091752;28;20046;-68
2023/10/18 06:16:51;;;;;;;13.77;9.68;;;6.10;99.90;;;;;;5094082;28;20354;-69
2023/10/18 06:19:25;;;;;;;17.60;9.98;;;6.10;99.90;;;;;;5093218;28;20131;-69
2023/10/18 06:21:57;;;;;;;15.27;10.35;;;6.10;99.90;;;;;;5093694;28;20490;-68
2023/10/18 06:24:25;;;;;;;17.33;9.73;;;6.20;99.90;;;;;;5093097;28;20031;-68
2023/10/18 06:26:54;;;;;;;13.60;10.02;;;6.20;99.90;;;;;;5093186;28;20056;-68
2023/10/18 06:29:23;;;;;;;16.15;10.00;;;6.30;99.90;;;;;;5093105;28;20059;-70
2023/10/18 06:31:49;;;;;;;20.63;10.95;;;6.40;99.90;;;;;;5093273;28;20473;-70
2023/10/18 06:34:18;;;;;;;14.30;10.15;;;6.50;99.90;;;;;;5092967;28;20060;-69
2023/10/18 06:36:52;;;;;;;12.82;9.18;;;6.50;99.90;;;;;;5093517;28;20032;-68
2023/10/18 06:39:25;;;;;;;16.25;10.50;;;6.60;99.90;;;;;;5092651;28;20039;-70
2023/10/18 06:41:55;;;;;;;14.48;9.52;;;6.70;99.90;;;;;;5093447;28;20471;-69
2023/10/18 06:44:29;;;;;;;15.68;10.15;;;6.80;99.90;;;;;;5092980;28;20028;-69
2023/10/18 06:46:55;;;;;;;14.93;10.10;;;6.80;99.90;;;;;;5092980;28;20468;-69
2023/10/18 06:49:21;;;;;;;15.90;9.68;;;6.90;99.90;;;;;;5092704;28;20080;-69
2023/10/18 06:51:50;;;;;;;15.07;9.30;;;7.00;99.90;;;;;;5091805;28;20024;-68
2023/10/18 06:54:28;;;;;;;14.20;10.25;;;7.10;99.90;;;;;;5092485;28;20059;-68
2023/10/18 06:56:57;;;;;;;15.43;9.90;;;7.10;99.90;;;;;;5093227;28;20489;-68
2023/10/18 06:59:28;;;;;;;19.55;9.32;;;7.10;99.90;;;;;;5092545;28;20051;-69
2023/10/18 07:02:00;;;;;;;19.45;10.25;;;7.20;99.80;;;;;;5093203;28;20069;-69
2023/10/18 07:04:35;;;;;;;17.70;10.70;;;7.20;99.60;;;;;;5092335;28;20109;-70
2023/10/18 07:07:01;;;;;;;15.52;9.50;;;7.30;99.60;;;;;;5093006;28;20395;-70
2023/10/18 07:09:31;;;;;;;11.07;9.05;;;7.40;99.50;;;;;;5092250;28;20106;-70
2023/10/18 07:11:57;;;;;;;12.38;9.65;;;7.40;99.40;;;;;;5092662;28;20429;-69
2023/10/18 07:14:26;;;;;;;13.25;9.95;;;7.50;99.20;;;;;;5092509;28;20052;-69
2023/10/18 07:16:55;;;;;;;13.57;10.05;;;7.70;98.90;;;;;;5092817;28;20107;-69
2023/10/18 07:21:51;;;;;;;13.48;9.52;;;8.20;98.70;;;;;;5092760;28;20081;-69
2023/10/18 07:24:20;;;;;;;13.38;10.27;;;8.40;97.40;;;;;;5092493;28;20035;-69
2023/10/18 07:26:47;;;;;;;14.25;8.77;;;8.60;96.70;;;;;;5092915;28;20438;-69
2023/10/18 07:29:16;;;;;;;12.10;8.95;;;8.80;96.60;;;;;;5092494;28;20024;-68
2023/10/18 07:31:45;;;;;;;11.73;8.73;;;9.00;96.10;;;;;;5093576;28;20055;-68
2023/10/18 07:34:17;;;;;;;14.02;8.80;;;9.30;95.40;;;;;;5096330;28;20032;-72
2023/10/18 07:36:46;;;;;;;14.55;8.98;;;9.50;94.20;;;;;;5097017;28;20023;-68
2023/10/18 07:39:16;;;;;;;13.63;8.65;;;9.60;93.20;;;;;;5096232;28;20032;-69
2023/10/18 07:41:42;;;;;;;12.57;8.38;;;9.80;93.10;;;;;;5090864;28;20029;-68
2023/10/18 07:44:08;;;;;;;12.43;8.45;;;9.90;92.60;;;;;;5076439;28;20366;-68
2023/10/18 07:46:35;;;;;;;14.50;8.75;;;10.10;92.40;;;;;;5075733;28;20108;-68
2023/10/18 07:49:11;;;;;;;;;;;10.30;91.60;;;;;;5076869;28;20073;-69
2023/10/18 07:51:43;;;;;;;12.18;8.88;;;10.40;91.00;;;;;;5076474;28;19905;-69
2023/10/18 07:54:10;;;;;;;12.50;8.48;;;10.60;90.90;;;;;;5076179;28;20024;-68
2023/10/18 07:56:40;;;;;;;11.85;8.60;;;10.80;90.00;;;;;;5075744;28;20112;-69
2023/10/18 07:59:45;;;;;;;16.55;8.80;;;10.90;88.30;;;;;;5075868;28;20477;-69
2023/10/18 08:04:47;;;;;;;12.70;8.13;;;11.20;85.70;;;;;;5076116;28;20081;-69
2023/10/18 08:07:20;;;;;;;13.27;8.10;;;11.30;85.30;;;;;;5075555;28;20438;-70
2023/10/18 08:09:51;;;;;;;10.48;8.30;;;11.30;84.40;;;;;;5075934;28;20410;-68
2023/10/18 08:12:33;;;;;;;16.05;7.75;;;11.40;84.60;;;;;;5075590;28;20029;-69
2023/10/18 08:14:59;;;;;;;10.70;7.38;;;11.40;84.70;;;;;;5076046;28;20031;-69
2023/10/18 08:17:29;;;;;;;9.88;7.47;;;11.50;83.90;;;;;;5075130;28;20154;-70
2023/10/18 08:20:17;;;;;;;11.35;7.43;;;11.50;83.70;;;;;;5087341;28;20060;-68
2023/10/18 08:22:42;;;;;;;9.88;6.72;;;11.60;83.10;;;;;;5095574;28;20028;-68
2023/10/18 08:25:21;;;;;;;12.48;7.55;;;11.60;82.40;;;;;;5096097;28;20028;-69
2023/10/18 08:27:53;;;;;;;11.73;7.35;;;11.70;82.50;;;;;;5095954;28;20040;-68
2023/10/18 08:33:08;;;;;;;12.93;6.93;;;11.80;82.50;;;;;;5066737;28;20036;-68
2023/10/18 08:35:34;;;;;;;14.23;7.05;;;11.90;82.30;;;;;;5095084;28;20334;-69
2023/10/18 08:38:03;;;;;;;11.27;7.15;;;11.90;81.90;;;;;;5095732;28;20103;-68
2023/10/18 08:43:18;;;;;;;15.95;7.35;;;12.00;81.30;;;;;;5094686;28;20054;-68
2023/10/18 08:45:49;;;;;;;13.73;7.57;;;12.10;81.20;;;;;;5095423;28;20024;-68
2023/10/18 08:48:17;;;;;;;11.18;7.28;;;12.20;80.80;;;;;;5095578;28;20024;-68
2023/10/18 08:50:43;;;;;;;11.00;7.50;;;12.30;81.30;;;;;;5095014;28;20034;-68
2023/10/18 08:53:15;;;;;;;10.35;7.13;;;12.40;80.60;;;;;;5095246;28;20032;-68
2023/10/18 08:55:45;;;;;;;8.63;7.20;;;12.50;79.30;;;;;;5095205;28;20028;-69
2023/10/18 08:58:17;;;;;;;11.63;7.65;;;12.60;79.00;;;;;;5095061;28;20024;-69
2023/10/18 09:03:14;;;;;;;11.10;7.13;;;12.70;78.10;;;;;;5095119;28;20024;-68
2023/10/18 09:05:40;;;;;;;11.85;6.80;;;12.70;78.30;;;;;;5094786;28;20063;-68
2023/10/18 09:08:19;;;;;;;10.05;7.18;;;12.70;78.10;;;;;;5095192;28;20103;-69
2023/10/18 09:10:50;;;;;;;12.43;7.03;;;12.80;78.30;;;;;;5094937;28;20040;-69
2023/10/18 09:15:55;;;;;;;10.32;6.72;;;12.90;77.50;;;;;;5095014;28;20126;-68
2023/10/18 09:18:22;;;;;;;12.35;7.03;;;13.00;77.30;;;;;;5094526;28;20367;-68
2023/10/18 09:20:48;;;;;;;9.45;6.43;;;13.10;76.70;;;;;;5094769;28;20025;-68
2023/10/18 09:23:21;;;;;;;8.43;6.60;;;13.20;75.20;;;;;;5094440;28;20108;-69
2023/10/18 09:25:50;;;;;;;11.60;6.72;;;13.30;74.50;;;;;;5094672;28;20071;-68
2023/10/18 09:28:25;;;;;;;9.07;6.93;;;13.40;73.20;;;;;;5094613;28;20034;-69
2023/10/18 09:30:54;;;;;;;9.10;6.40;;;13.40;71.60;;;;;;5094865;28;20101;-69
2023/10/18 09:33:20;;;;;;;10.30;6.68;;;13.40;71.40;;;;;;5093903;28;20085;-71
2023/10/18 09:35:49;;;;;;;10.35;6.22;;;13.50;71.00;;;;;;5094652;28;20502;-70
2023/10/18 09:38:18;;;;;;;7.75;6.65;;;13.50;71.30;;;;;;5094284;28;20442;-70
2023/10/18 09:40:48;;;;;;;10.00;6.47;;;13.60;70.90;;;;;;5094020;28;20047;-69
2023/10/18 09:43:13;;;;;;;8.93;6.45;;;13.60;70.30;;;;;;5089261;28;20047;-68
2023/10/18 09:45:39;;;;;;;10.43;6.50;;;13.70;69.90;;;;;;5073944;28;20454;-68
2023/10/18 09:48:08;;;;;;;9.40;6.80;;;13.70;70.10;;;;;;5074161;28;20085;-68
2023/10/18 09:50:36;;;;;;;9.27;7.10;;;13.80;69.60;;;;;;5073703;28;20029;-69
2023/10/18 09:53:04;;;;;;;9.25;7.32;;;13.80;69.40;;;;;;5074136;28;20488;-69
2023/10/18 09:55:30;;;;;;;11.50;7.05;;;13.90;69.60;;;;;;5073204;28;20047;-69
2023/10/18 09:58:05;;;;;;;8.35;7.05;;;13.90;69.20;;;;;;5073447;28;20479;-69
2023/10/18 10:00:42;;;;;;;10.77;7.65;;;13.90;69.30;;;;;;5073370;28;20374;-69
2023/10/18 10:03:09;;;;;;;7.57;6.60;;;13.90;69.00;;;;;;5073693;28;20027;-67
2023/10/18 10:05:44;;;;;;;11.55;6.43;;;14.00;69.10;;;;;;5073283;28;20364;-70
2023/10/18 10:08:11;;;;;;;7.90;6.40;;;14.00;69.00;;;;;;5075938;28;20028;-67
2023/10/18 10:10:46;;;;;;;15.02;7.30;;;14.00;68.70;;;;;;5081585;28;20028;-68
2023/10/18 10:13:25;;;;;;;12.65;6.97;;;13.90;68.90;;;;;;5093759;28;20067;-68
2023/10/18 10:16:02;;;;;;;11.82;6.70;;;13.90;69.10;;;;;;5094008;28;20027;-68
2023/10/18 10:18:31;;;;;;;11.18;7.65;;;13.90;69.00;;;;;;5093171;28;20461;-68
2023/10/18 10:20:58;;;;;;;11.45;7.07;;;13.90;68.80;;;;;;5093516;28;20031;-69
2023/10/18 10:23:24;;;;;;;11.48;6.70;;;13.90;68.90;;;;;;5093042;28;20107;-70
2023/10/18 10:26:12;;;;;;;8.95;6.90;;;14.00;68.90;;;;;;5093212;28;20099;-69
2023/10/18 10:31:53;;;;;;;;;;;14.10;69.20;;;;;;5093494;28;20024;-69
2023/10/18 10:34:32;;;;;;;9.52;6.78;;;14.20;68.50;;;;;;5093505;28;19911;-68
2023/10/18 10:37:23;;;;;;;12.48;7.10;;;14.30;68.10;;;;;;5093336;28;20090;-68
2023/10/18 10:40:18;;;;;;;14.65;6.57;;;14.30;67.60;;;;;;5093281;28;20036;-69
2023/10/18 10:42:44;;;;;;;9.65;6.93;;;14.30;67.70;;;;;;5092473;28;20116;-70
2023/10/18 10:47:46;;;;;;;12.30;6.93;;;14.10;67.80;;;;;;5092639;28;20032;-70
2023/10/18 10:50:57;;;;;;;10.00;7.22;;;14.10;68.10;;;;;;5093768;28;20107;-69
2023/10/18 10:53:43;;;;;;;12.73;6.57;;;14.00;68.30;;;;;;5093409;28;20030;-69
2023/10/18 10:56:18;;;;;;;14.00;6.35;;;14.00;68.50;;;;;;5093206;28;20039;-68
2023/10/18 10:58:57;;;;;;;11.63;6.47;;;14.00;68.40;;;;;;5092275;28;20047;-69
2023/10/18 11:04:27;;;;;;;10.68;6.53;;;14.10;68.10;;;;;;5093079;28;20115;-68
2023/10/18 11:06:57;;;;;;;7.32;6.35;;;14.20;68.20;;;;;;5092450;28;20077;-68
2023/10/18 11:09:32;;;;;;;8.85;7.13;;;14.20;67.80;;;;;;5092961;28;20092;-70
2023/10/18 11:12:03;;;;;;;9.13;5.68;;;14.20;67.90;;;;;;5093179;28;20350;-70
2023/10/18 11:14:30;;;;;;;10.02;6.07;;;14.30;68.20;;;;;;5092490;28;20039;-70
2023/10/18 11:19:40;;;;;;;13.27;6.13;;;14.30;67.50;;;;;;5092549;28;20122;-70
2023/10/18 11:22:07;;;;;;;9.50;6.15;;;14.30;66.70;;;;;;5092370;28;20469;-68
2023/10/18 11:24:34;;;;;;;10.15;5.93;;;14.30;66.50;;;;;;5092259;28;20051;-69
2023/10/18 11:27:02;;;;;;;9.35;6.15;;;14.20;66.40;;;;;;5092724;28;20107;-69
2023/10/18 11:29:27;;;;;;;10.23;5.97;;;14.20;66.30;;;;;;5092320;28;20093;-75
2023/10/18 11:31:58;;;;;;;10.73;6.70;;;14.10;66.70;;;;;;5092383;28;20520;-68
2023/10/18 11:34:25;;;;;;;11.57;6.32;;;14.20;67.00;;;;;;5092627;28;20035;-69
2023/10/18 11:36:53;;;;;;;8.10;5.53;;;14.10;66.50;;;;;;5092034;28;20069;-73
2023/10/18 11:39:19;;;;;;;6.63;5.85;;;14.10;66.30;;;;;;5089129;28;20028;-68
2023/10/18 11:41:49;;;;;;;9.45;5.90;;;14.00;66.20;;;;;;5092066;28;20089;-68
2023/10/18 11:44:34;;;;;;;13.45;6.15;;;14.00;66.50;;;;;;5092531;28;20431;-68
2023/10/18 11:47:25;;;;;;;10.18;5.97;;;14.00;66.70;;;;;;5092970;28;20472;-69
2023/10/18 11:49:53;;;;;;;14.02;5.72;;;14.00;66.70;;;;;;5091293;28;20135;-70
2023/10/18 11:52:25;;;;;;;11.13;5.82;;;14.00;66.90;;;;;;5092162;28;20077;-69
2023/10/18 11:54:52;;;;;;;8.35;5.95;;;14.00;66.70;;;;;;5092136;28;20197;-70
2023/10/18 11:57:24;;;;;;;10.30;6.28;;;13.90;66.60;;;;;;5092815;28;20489;-69
2023/10/18 11:59:55;;;;;;;7.60;5.90;;;13.90;66.80;;;;;;5093160;28;20060;-69
2023/10/18 12:02:30;;;;;;;7.00;5.57;;;13.90;66.50;;;;;;5093726;28;20032;-69
2023/10/18 12:04:57;;;;;;;11.23;5.53;;;13.80;66.60;;;;;;5093748;28;20040;-69
2023/10/18 12:07:23;;;;;;;12.55;5.65;;;13.80;66.70;;;;;;5093319;28;20055;-69
2023/10/18 12:09:51;;;;;;;8.77;6.15;;;13.80;66.60;;;;;;5089504;28;20034;-69
2023/10/18 12:12:20;;;;;;;6.90;5.43;;;13.70;66.90;;;;;;5092693;28;20039;-68
2023/10/18 12:14:47;;;;;;;9.90;6.43;;;13.80;67.60;;;;;;5091927;28;20035;-69
2023/10/18 12:17:14;;;;;;;11.63;6.20;;;13.80;67.20;;;;;;5092469;28;20036;-69
2023/10/18 12:19:40;;;;;;;5.97;5.38;;;13.80;67.10;;;;;;5076623;28;20043;-69
2023/10/18 12:22:10;;;;;;;9.13;6.43;;;13.70;67.30;;;;;;5075717;28;20107;-70
2023/10/18 12:24:36;;;;;;;9.30;6.13;;;13.60;67.20;;;;;;5075186;28;20069;-70
2023/10/18 12:27:33;;;;;;;8.05;5.78;;;13.60;67.60;;;;;;5075595;28;20044;-69
2023/10/18 12:30:00;;;;;;;8.75;6.03;;;13.60;67.90;;;;;;5075896;28;20028;-70
2023/10/18 12:32:26;;;;;;;7.88;5.55;;;13.60;68.10;;;;;;5075556;28;20039;-68
2023/10/18 12:35:12;;;;;;;7.50;5.60;;;13.60;68.00;;;;;;5075010;28;20032;-69
2023/10/18 12:37:40;;;;;;;14.95;5.80;;;13.50;68.30;;;;;;5074752;28;20023;-71
2023/10/18 12:40:27;;;;;;;14.55;6.30;;;13.50;68.50;;;;;;5075363;28;20033;-69
2023/10/18 12:42:58;;;;;;;8.00;6.95;;;13.40;68.70;;;;;;5075062;28;20033;-69
2023/10/18 12:45:23;;;;;;;11.60;6.28;;;13.40;69.10;;;;;;5075289;28;20056;-69
2023/10/18 12:47:51;;;;;;;8.05;6.32;;;13.30;69.50;;;;;;5074720;28;20068;-68
2023/10/18 12:50:26;;;;;;;11.60;6.30;;;13.30;70.10;;;;;;5075083;28;20040;-69
2023/10/18 12:52:55;;;;;;;10.93;6.45;;;13.30;69.60;;;;;;5074731;28;20060;-68
2023/10/18 12:55:33;;;;;;;8.50;6.18;;;13.30;69.70;;;;;;5074979;28;20119;-69
2023/10/18 12:58:08;;;;;;;6.53;5.57;;;13.20;69.90;;;;;;5075062;28;20035;-68
2023/10/18 13:00:42;;;;;;;8.35;5.90;;;13.20;70.10;;;;;;5074697;28;20135;-75
2023/10/18 13:05:40;;;;;;;8.70;6.95;;;13.20;70.40;;;;;;5074526;28;20052;-69
2023/10/18 13:08:17;;;;;;;9.90;7.50;;;13.20;70.40;;;;;;5074772;28;20052;-68
2023/10/18 13:10:48;;;;;;;8.23;6.60;;;13.20;70.40;;;;;;5074470;28;20123;-69
2023/10/18 13:13:16;;;;;;;9.45;7.32;;;13.10;70.30;;;;;;5074534;28;20099;-69
2023/10/18 13:15:46;;;;;;;11.18;6.22;;;13.10;70.70;;;;;;5074179;28;20161;-69
2023/10/18 13:18:14;;;;;;;13.85;7.00;;;13.20;70.60;;;;;;5074889;28;20032;-69
2023/10/18 13:20:43;;;;;;;9.32;6.35;;;13.10;70.60;;;;;;5074047;28;20116;-68
2023/10/18 13:23:09;;;;;;;9.65;7.55;;;13.10;70.90;;;;;;5074632;28;20449;-68
2023/10/18 13:25:37;;;;;;;12.82;6.57;;;13.20;71.10;;;;;;5074539;28;20023;-70
2023/10/18 13:28:07;;;;;;;11.85;6.38;;;13.20;71.20;;;;;;5074284;28;20483;-68
2023/10/18 13:30:39;;;;;;;9.18;6.18;;;13.20;71.20;;;;;;5072196;28;20032;-69
2023/10/18 13:33:11;;;;;;;11.85;7.32;;;13.20;71.40;;;;;;5074061;28;20082;-69
2023/10/18 13:35:40;;;;;;;11.43;6.60;;;13.20;71.40;;;;;;5073715;28;20381;-74
2023/10/18 13:38:06;;;;;;;9.70;6.50;;;13.10;71.10;;;;;;5072735;28;20021;-69
2023/10/18 13:40:37;;;;;;;14.20;6.70;;;13.10;71.30;;;;;;5073845;28;20515;-69
2023/10/18 13:43:09;;;;;;;10.77;6.32;;;13.10;71.30;;;;;;5088069;28;20077;-68
2023/10/18 13:45:35;;;;;;;15.00;6.18;;;13.10;71.30;;;;;;5094204;28;20032;-69
2023/10/18 13:48:02;;;;;;;11.88;6.25;;;13.10;71.20;;;;;;5093967;28;20035;-68
2023/10/18 13:50:31;;;;;;;10.75;6.70;;;13.10;71.00;;;;;;5094216;28;20038;-69
2023/10/18 13:52:56;;;;;;;12.30;6.75;;;13.10;71.10;;;;;;5093785;28;20469;-68